createdAt,value
2022-09-10T00:01:37.162Z,3.80
2022-09-10T00:04:13.089Z,4.72
2022-09-10T00:06:42.256Z,4.75
2022-09-10T00:09:12.330Z,4.38
2022-09-10T00:11:41.740Z,4.25
2022-09-10T00:14:17.281Z,4.30
2022-09-10T00:16:45.825Z,4.25
2022-09-10T00:19:15.079Z,4.47
2022-09-10T00:21:44.510Z,4.32
2022-09-10T00:24:15.862Z,4.93
2022-09-10T00:26:43.998Z,3.50
2022-09-10T00:29:16.983Z,3.72
2022-09-10T00:31:45.967Z,3.45
2022-09-10T00:34:14.837Z,3.10
2022-09-10T00:36:44.270Z,3.88
2022-09-10T00:39:18.794Z,3.70
2022-09-10T00:41:48.860Z,3.00
2022-09-10T00:44:43.322Z,3.95
2022-09-10T00:47:17.169Z,3.30
2022-09-10T00:49:54.211Z,3.40
2022-09-10T00:52:22.944Z,4.28
2022-09-10T00:54:51.550Z,5.15
2022-09-10T00:57:23.132Z,3.45
2022-09-10T00:59:56.578Z,3.90
2022-09-10T01:04:58.365Z,3.40
2022-09-10T01:07:29.270Z,3.38
2022-09-10T01:10:05.065Z,3.33
2022-09-10T01:13:11.813Z,2.95
2022-09-10T01:16:01.422Z,1.90
2022-09-10T01:18:45.019Z,2.28
2022-09-10T01:21:37.120Z,2.35
2022-09-10T01:24:24.317Z,2.17
2022-09-10T01:27:04.314Z,1.83
2022-09-10T01:29:44.744Z,1.75
2022-09-10T01:32:18.015Z,1.02
2022-09-10T01:35:04.921Z,1.45
2022-09-10T01:37:36.978Z,1.30
2022-09-10T01:40:07.634Z,1.25
2022-09-10T01:42:39.686Z,0.93
2022-09-10T01:45:12.355Z,1.35
2022-09-10T01:47:43.268Z,1.45
2022-09-10T01:50:38.487Z,1.60
2022-09-10T01:53:22.863Z,1.40
2022-09-10T01:56:30.192Z,1.52
2022-09-10T01:59:25.807Z,1.42
2022-09-10T02:02:09.007Z,2.28
2022-09-10T02:04:38.335Z,1.67
2022-09-10T02:07:08.780Z,1.52
2022-09-10T02:09:37.627Z,2.45
2022-09-10T02:12:12.750Z,3.55
2022-09-10T02:14:57.258Z,3.22
2022-09-10T02:17:54.987Z,2.90
2022-09-10T02:20:24.090Z,3.13
2022-09-10T02:22:58.715Z,2.85
2022-09-10T02:25:31.793Z,2.67
2022-09-10T02:28:00.245Z,2.10
2022-09-10T02:30:29.301Z,2.10
2022-09-10T02:32:57.504Z,2.67
2022-09-10T02:35:25.785Z,1.70
2022-09-10T02:37:53.932Z,1.50
2022-09-10T02:40:22.050Z,1.50
2022-09-10T02:42:50.235Z,1.42
2022-09-10T02:45:24.953Z,1.30
2022-09-10T02:47:53.601Z,1.95
2022-09-10T02:50:22.131Z,1.67
2022-09-10T02:52:53.840Z,1.60
2022-09-10T02:55:22.195Z,1.40
2022-09-10T02:57:50.368Z,1.75
2022-09-10T03:00:20.252Z,1.80
2022-09-10T03:02:48.472Z,1.30
2022-09-10T03:05:17.450Z,1.98
2022-09-10T03:07:46.185Z,2.03
2022-09-10T03:10:14.551Z,2.28
2022-09-10T03:12:42.732Z,1.65
2022-09-10T03:15:12.816Z,1.92
2022-09-10T03:17:40.944Z,1.95
2022-09-10T03:20:09.450Z,2.03
2022-09-10T03:22:38.339Z,1.98
2022-09-10T03:25:08.018Z,1.95
2022-09-10T03:27:37.369Z,1.30
2022-09-10T03:30:10.543Z,1.60
2022-09-10T03:32:41.556Z,1.42
2022-09-10T03:35:10.715Z,1.35
2022-09-10T03:37:40.023Z,1.20
2022-09-10T03:40:09.279Z,1.02
2022-09-10T03:42:38.772Z,1.20
2022-09-10T03:45:07.501Z,0.77
2022-09-10T03:47:37.646Z,1.00
2022-09-10T03:50:06.649Z,0.93
2022-09-10T03:52:35.725Z,1.20
2022-09-10T03:55:04.343Z,0.98
2022-09-10T03:57:32.428Z,0.90
2022-09-10T04:00:00.525Z,1.27
2022-09-10T04:02:28.790Z,0.93
2022-09-10T04:04:57.023Z,0.90
2022-09-10T04:07:25.099Z,1.00
2022-09-10T04:09:53.287Z,1.13
2022-09-10T04:12:24.932Z,0.80
2022-09-10T04:14:53.354Z,0.82
2022-09-10T04:17:21.431Z,1.13
2022-09-10T04:19:51.049Z,1.27
2022-09-10T04:22:19.180Z,0.98
2022-09-10T04:24:47.422Z,1.02
2022-09-10T04:27:16.922Z,0.90
2022-09-10T04:29:45.686Z,1.17
2022-09-10T04:32:14.110Z,0.85
2022-09-10T04:34:42.945Z,1.00
2022-09-10T04:37:12.719Z,1.00
2022-09-10T04:39:43.551Z,1.00
2022-09-10T04:42:15.436Z,0.93
2022-09-10T04:44:43.642Z,1.00
2022-09-10T04:47:12.296Z,0.70
2022-09-10T04:49:40.857Z,0.70
2022-09-10T04:52:13.083Z,0.77
2022-09-10T04:54:41.683Z,1.15
2022-09-10T04:57:10.045Z,0.98
2022-09-10T04:59:38.569Z,0.80
2022-09-10T05:02:09.004Z,0.70
2022-09-10T05:04:39.390Z,1.05
2022-09-10T05:07:07.808Z,0.75
2022-09-10T05:09:36.148Z,0.85
2022-09-10T05:12:05.618Z,1.00
2022-09-10T05:14:34.401Z,0.90
2022-09-10T05:17:03.689Z,0.80
2022-09-10T05:19:33.887Z,1.35
2022-09-10T05:22:06.933Z,0.82
2022-09-10T05:24:35.755Z,0.82
2022-09-10T05:27:06.048Z,0.95
2022-09-10T05:29:35.051Z,1.02
2022-09-10T05:32:03.306Z,1.40
2022-09-10T05:34:31.400Z,1.20
2022-09-10T05:36:59.590Z,1.00
2022-09-10T05:39:27.676Z,0.98
2022-09-10T05:41:55.756Z,0.98
2022-09-10T05:44:24.954Z,0.98
2022-09-10T05:46:53.679Z,1.20
2022-09-10T05:49:22.545Z,0.98
2022-09-10T05:51:51.126Z,1.10
2022-09-10T05:54:19.471Z,0.80
2022-09-10T05:56:47.712Z,1.25
2022-09-10T05:59:15.869Z,1.60
2022-09-10T06:01:51.506Z,1.08
2022-09-10T06:04:21.850Z,1.20
2022-09-10T06:06:50.040Z,1.20
2022-09-10T06:09:19.350Z,4.75
2022-09-10T06:12:00.571Z,1.20
2022-09-10T06:14:29.134Z,1.38
2022-09-10T06:16:57.697Z,1.67
2022-09-10T06:19:27.596Z,1.92
2022-09-10T06:21:57.102Z,1.65
2022-09-10T06:24:29.141Z,2.58
2022-09-10T06:26:59.406Z,3.53
2022-09-10T06:29:30.303Z,3.70
2022-09-10T06:32:00.650Z,3.25
2022-09-10T06:34:28.906Z,3.35
2022-09-10T06:36:59.688Z,3.70
2022-09-10T06:39:30.213Z,3.78
2022-09-10T06:42:01.612Z,4.03
2022-09-10T06:44:50.407Z,3.55
2022-09-10T06:48:32.406Z,2.92
2022-09-10T06:50:22.612Z,2.70
2022-09-10T06:52:53.178Z,4.00
2022-09-10T06:55:23.314Z,3.47
2022-09-10T06:57:51.691Z,3.03
2022-09-10T07:00:23.193Z,2.50
2022-09-10T07:02:54.216Z,2.65
2022-09-10T07:05:23.966Z,3.20
2022-09-10T07:07:53.011Z,2.67
2022-09-10T07:10:23.090Z,2.75
2022-09-10T07:12:52.556Z,2.50
2022-09-10T07:15:22.409Z,2.30
2022-09-10T07:17:51.728Z,2.00
2022-09-10T07:20:23.494Z,1.80
2022-09-10T07:22:57.155Z,1.52
2022-09-10T07:25:27.369Z,1.80
2022-09-10T07:28:06.570Z,1.65
2022-09-10T07:30:37.540Z,2.10
2022-09-10T07:33:05.944Z,1.63
2022-09-10T07:35:38.446Z,1.05
2022-09-10T07:38:14.126Z,1.45
2022-09-10T07:40:43.848Z,1.30
2022-09-10T07:43:12.550Z,1.30
2022-09-10T07:45:41.858Z,1.38
2022-09-10T07:48:12.204Z,1.20
2022-09-10T07:50:41.137Z,1.20
2022-09-10T07:53:12.133Z,1.20
2022-09-10T07:55:40.947Z,1.17
2022-09-10T07:58:10.229Z,1.30
2022-09-10T08:00:43.792Z,1.08
2022-09-10T08:03:12.684Z,1.10
2022-09-10T08:05:41.159Z,1.45
2022-09-10T08:08:10.546Z,1.13
2022-09-10T08:10:39.158Z,1.58
2022-09-10T08:13:08.079Z,1.52
2022-09-10T08:15:40.973Z,1.38
2022-09-10T08:18:10.317Z,1.35
2022-09-10T08:20:40.066Z,1.40
2022-09-10T08:23:08.386Z,0.98
2022-09-10T08:25:38.103Z,1.27
2022-09-10T08:28:07.067Z,1.20
2022-09-10T08:30:36.383Z,1.20
2022-09-10T08:33:05.242Z,1.00
2022-09-10T08:35:34.952Z,1.00
2022-09-10T08:38:03.871Z,1.30
2022-09-10T08:40:32.898Z,1.20
2022-09-10T08:43:02.064Z,1.10
2022-09-10T08:45:33.953Z,1.10
2022-09-10T08:48:17.394Z,1.00
2022-09-10T08:51:10.007Z,1.00
2022-09-10T08:56:27.069Z,0.75
2022-09-10T08:59:03.200Z,0.80
2022-09-10T09:01:51.579Z,1.10
2022-09-10T09:05:05.243Z,1.20
2022-09-10T09:07:40.269Z,1.40
2022-09-10T09:10:25.279Z,1.00
2022-09-10T09:13:20.855Z,0.98
2022-09-10T09:16:17.018Z,0.90
2022-09-10T09:19:00.346Z,0.80
2022-09-10T09:21:46.294Z,1.00
2022-09-10T09:24:22.661Z,1.00
2022-09-10T09:27:01.882Z,0.82
2022-09-10T09:29:55.038Z,0.85
2022-09-10T09:32:25.383Z,0.93
2022-09-10T09:35:08.056Z,1.10
2022-09-10T09:37:38.146Z,0.60
2022-09-10T09:40:28.499Z,0.98
2022-09-10T09:43:03.251Z,1.10
2022-09-10T09:45:43.962Z,1.20
2022-09-10T09:48:17.225Z,0.97
2022-09-10T09:50:51.603Z,0.85
2022-09-10T09:55:55.744Z,0.80
2022-09-10T09:58:26.857Z,0.98
2022-09-10T10:01:03.935Z,0.98
2022-09-10T10:03:38.269Z,1.10
2022-09-10T10:06:11.522Z,1.00
2022-09-10T10:08:45.694Z,1.15
2022-09-10T10:11:20.681Z,1.00
2022-09-10T10:13:53.113Z,1.05
2022-09-10T10:16:33.867Z,1.13
2022-09-10T10:19:02.415Z,1.05
2022-09-10T10:21:36.782Z,0.95
2022-09-10T10:24:05.950Z,0.85
2022-09-10T10:26:35.970Z,0.82
2022-09-10T10:29:19.333Z,1.17
2022-09-10T10:31:50.486Z,1.40
2022-09-10T10:34:41.155Z,1.00
2022-09-10T10:37:22.584Z,0.85
2022-09-10T10:40:31.611Z,1.00
2022-09-10T10:43:26.548Z,1.10
2022-09-10T10:46:08.776Z,0.90
2022-09-10T10:48:57.975Z,0.90
2022-09-10T10:51:49.282Z,1.05
2022-09-10T10:54:41.220Z,1.00
2022-09-10T10:57:27.873Z,0.82
2022-09-10T11:00:04.135Z,0.70
2022-09-10T11:02:40.897Z,1.15
2022-09-10T11:05:27.044Z,0.90
2022-09-10T11:07:56.484Z,0.75
2022-09-10T11:10:39.371Z,0.80
2022-09-10T11:13:25.708Z,0.90
2022-09-10T11:16:15.220Z,0.90
2022-09-10T11:18:52.053Z,0.90
2022-09-10T11:21:56.200Z,0.80
2022-09-10T11:24:47.767Z,0.85
2022-09-10T11:27:35.027Z,1.00
2022-09-10T11:30:10.289Z,0.75
2022-09-10T11:33:05.718Z,0.75
2022-09-10T11:35:45.876Z,0.90
2022-09-10T11:38:24.804Z,0.80
2022-09-10T11:41:17.440Z,1.00
2022-09-10T11:44:03.543Z,0.82
2022-09-10T11:46:37.816Z,0.70
2022-09-10T11:49:20.646Z,0.70
2022-09-10T11:51:49.341Z,0.85
2022-09-10T11:54:23.649Z,0.75
2022-09-10T11:57:27.507Z,0.80
2022-09-10T12:00:08.756Z,1.02
2022-09-10T12:03:14.696Z,1.08
2022-09-10T12:05:51.425Z,0.70
2022-09-10T12:08:29.584Z,0.88
2022-09-10T12:11:09.587Z,0.93
2022-09-10T12:13:41.732Z,0.90
2022-09-10T12:16:25.291Z,0.80
2022-09-10T12:18:55.777Z,0.80
2022-09-10T12:21:43.122Z,0.88
2022-09-10T12:24:40.451Z,1.08
2022-09-10T12:27:17.481Z,0.93
2022-09-10T12:29:45.816Z,0.90
2022-09-10T12:32:30.837Z,1.20
2022-09-10T12:35:38.108Z,0.88
2022-09-10T12:38:43.755Z,1.13
2022-09-10T12:41:34.535Z,0.85
2022-09-10T12:44:28.283Z,0.80
2022-09-10T12:47:14.855Z,0.90
2022-09-10T12:49:59.054Z,1.00
2022-09-10T12:52:45.882Z,0.90
2022-09-10T12:55:32.447Z,0.70
2022-09-10T12:58:17.075Z,0.90
2022-09-10T13:00:53.879Z,0.70
2022-09-10T13:03:25.079Z,0.90
2022-09-10T13:05:56.641Z,0.82
2022-09-10T13:08:33.411Z,0.90
2022-09-10T13:11:05.259Z,0.90
2022-09-10T13:13:56.484Z,0.73
2022-09-10T13:16:28.000Z,0.77
2022-09-10T13:19:14.264Z,1.55
2022-09-10T13:21:45.372Z,0.82
2022-09-10T13:24:35.672Z,0.82
2022-09-10T13:27:38.239Z,0.70
2022-09-10T13:30:17.571Z,0.85
2022-09-10T13:33:05.166Z,0.77
2022-09-10T13:36:03.987Z,1.00
2022-09-10T13:38:43.758Z,0.98
2022-09-10T13:41:27.868Z,1.00
2022-09-10T13:44:04.947Z,0.90
2022-09-10T13:46:45.123Z,0.93
2022-09-10T13:49:41.201Z,0.93
2022-09-10T13:52:16.039Z,0.90
2022-09-10T13:54:58.222Z,0.90
2022-09-10T13:57:40.851Z,1.00
2022-09-10T14:00:23.650Z,0.90
2022-09-10T14:02:55.012Z,0.85
2022-09-10T14:05:29.244Z,1.13
2022-09-10T14:08:01.873Z,1.05
2022-09-10T14:10:30.914Z,1.00
2022-09-10T14:12:59.646Z,0.85
2022-09-10T14:15:36.245Z,1.02
2022-09-10T14:18:04.678Z,0.80
2022-09-10T14:20:35.653Z,0.90
2022-09-10T14:23:12.888Z,1.13
2022-09-10T14:25:42.981Z,0.93
2022-09-10T14:28:16.970Z,1.02
2022-09-10T14:30:48.748Z,1.30
2022-09-10T14:33:28.465Z,1.30
2022-09-10T14:35:58.777Z,0.73
2022-09-10T14:38:34.225Z,1.10
2022-09-10T14:41:16.558Z,0.93
2022-09-10T14:43:45.151Z,1.13
2022-09-10T14:46:51.672Z,1.20
2022-09-10T14:49:29.118Z,1.10
2022-09-10T14:51:58.550Z,1.20
2022-09-10T14:54:32.232Z,1.40
2022-09-10T14:57:13.783Z,1.00
2022-09-10T14:59:44.497Z,1.20
2022-09-10T15:02:32.884Z,1.38
2022-09-10T15:05:00.981Z,0.98
2022-09-10T15:07:29.234Z,1.10
2022-09-10T15:09:57.341Z,1.02
2022-09-10T15:12:31.749Z,1.50
2022-09-10T15:15:00.000Z,1.23
2022-09-10T15:17:28.084Z,1.10
2022-09-10T15:19:56.306Z,0.98
2022-09-10T15:22:26.830Z,1.20
2022-09-10T15:25:09.785Z,1.25
2022-09-10T15:27:39.273Z,1.10
2022-09-10T15:30:08.018Z,1.40
2022-09-10T15:32:36.190Z,1.63
2022-09-10T15:35:05.362Z,1.55
2022-09-10T15:37:33.418Z,1.45
2022-09-10T15:40:01.742Z,1.70
2022-09-10T15:42:31.534Z,1.52
2022-09-10T15:44:59.559Z,1.08
2022-09-10T15:47:27.698Z,1.45
2022-09-10T15:49:56.613Z,1.30
2022-09-10T15:52:24.757Z,1.50
2022-09-10T15:54:54.284Z,1.50
2022-09-10T15:57:22.425Z,1.40
2022-09-10T15:59:50.506Z,1.38
2022-09-10T16:02:18.680Z,1.45
2022-09-10T16:04:46.761Z,1.23
2022-09-10T16:07:14.922Z,1.83
2022-09-10T16:09:43.565Z,1.42
2022-09-10T16:12:12.104Z,1.63
2022-09-10T16:14:40.179Z,1.60
2022-09-10T16:17:10.619Z,1.40
2022-09-10T16:19:38.863Z,1.40
2022-09-10T16:22:08.127Z,1.67
2022-09-10T16:24:36.247Z,1.70
2022-09-10T16:27:04.785Z,1.70
2022-09-10T16:29:32.832Z,1.60
2022-09-10T16:32:00.933Z,1.95
2022-09-10T16:34:29.040Z,1.42
2022-09-10T16:36:57.391Z,1.55
2022-09-10T16:39:25.468Z,2.58
2022-09-10T16:41:53.604Z,1.70
2022-09-10T16:44:21.974Z,1.60
2022-09-10T16:46:50.534Z,1.63
2022-09-10T16:49:19.721Z,2.10
2022-09-10T16:51:49.378Z,1.50
2022-09-10T16:54:21.338Z,1.75
2022-09-10T16:56:50.437Z,2.25
2022-09-10T16:59:25.848Z,1.83
2022-09-10T17:01:55.047Z,1.65
2022-09-10T17:04:29.370Z,1.55
2022-09-10T17:06:58.505Z,1.60
2022-09-10T17:09:26.696Z,1.45
2022-09-10T17:11:55.180Z,1.60
2022-09-10T17:14:23.389Z,1.90
2022-09-10T17:16:52.182Z,1.70
2022-09-10T17:19:23.566Z,1.83
2022-09-10T17:21:55.237Z,2.25
2022-09-10T17:24:25.951Z,2.65
2022-09-10T17:26:55.426Z,2.88
2022-09-10T17:29:25.764Z,2.55
2022-09-10T17:31:57.503Z,2.38
2022-09-10T17:34:26.551Z,3.40
2022-09-10T17:36:54.879Z,2.60
2022-09-10T17:39:23.067Z,2.72
2022-09-10T17:41:56.369Z,3.33
2022-09-10T17:46:53.625Z,2.20
2022-09-10T17:49:21.818Z,2.58
2022-09-10T17:51:53.219Z,2.20
2022-09-10T17:54:21.491Z,1.90
2022-09-10T17:56:49.626Z,2.17
2022-09-10T17:59:17.860Z,2.47
2022-09-10T18:01:45.989Z,3.13
2022-09-10T18:04:14.458Z,2.60
2022-09-10T18:06:43.730Z,3.20
2022-09-10T18:09:12.334Z,3.22
2022-09-10T18:11:41.723Z,3.20
2022-09-10T18:14:18.529Z,3.00
2022-09-10T18:16:46.772Z,2.50
2022-09-10T18:19:16.722Z,2.92
2022-09-10T18:21:47.667Z,2.38
2022-09-10T18:24:22.530Z,2.08
2022-09-10T18:26:53.881Z,2.13
2022-09-10T18:29:25.394Z,2.20
2022-09-10T18:31:57.452Z,1.70
2022-09-10T18:34:27.876Z,2.00
2022-09-10T18:36:58.701Z,1.80
2022-09-10T18:39:29.088Z,2.88
2022-09-10T18:41:58.935Z,2.90
2022-09-10T18:44:29.783Z,2.75
2022-09-10T18:46:57.932Z,2.13
2022-09-10T18:49:26.820Z,2.25
2022-09-10T18:51:57.343Z,2.20
2022-09-10T18:54:30.188Z,2.55
2022-09-10T18:56:58.636Z,2.25
2022-09-10T18:59:26.955Z,2.33
2022-09-10T19:01:56.035Z,3.75
2022-09-10T19:04:27.873Z,2.65
2022-09-10T19:06:57.143Z,2.67
2022-09-10T19:09:29.505Z,2.10
2022-09-10T19:12:00.269Z,2.45
2022-09-10T19:14:30.685Z,2.30
2022-09-10T19:17:00.813Z,2.20
2022-09-10T19:19:31.784Z,1.85
2022-09-10T19:22:03.609Z,2.28
2022-09-10T19:24:53.499Z,2.35
2022-09-10T19:27:21.234Z,2.05
2022-09-10T19:29:53.359Z,2.72
2022-09-10T19:32:21.491Z,2.63
2022-09-10T19:34:50.713Z,2.65
2022-09-10T19:37:19.817Z,2.70
2022-09-10T19:39:48.144Z,2.03
2022-09-10T19:42:17.237Z,2.00
2022-09-10T19:44:45.379Z,2.15
2022-09-10T19:47:13.536Z,2.45
2022-09-10T19:49:41.663Z,1.58
2022-09-10T19:52:11.035Z,1.63
2022-09-10T19:54:39.253Z,2.05
2022-09-10T19:57:07.375Z,1.95
2022-09-10T19:59:35.615Z,2.00
2022-09-10T20:02:03.783Z,1.55
2022-09-10T20:04:33.088Z,2.00
2022-09-10T20:07:01.376Z,1.55
2022-09-10T20:09:29.464Z,1.73
2022-09-10T20:11:57.611Z,1.77
2022-09-10T20:14:25.717Z,1.73
2022-09-10T20:16:54.700Z,1.55
2022-09-10T20:19:22.861Z,1.52
2022-09-10T20:21:51.766Z,1.40
2022-09-10T20:24:19.924Z,1.38
2022-09-10T20:26:49.013Z,1.67
2022-09-10T20:29:19.297Z,1.20
2022-09-10T20:31:48.899Z,1.23
2022-09-10T20:34:20.250Z,1.08
2022-09-10T20:36:51.319Z,1.10
2022-09-10T20:39:21.658Z,1.30
2022-09-10T20:41:49.763Z,1.30
2022-09-10T20:44:18.357Z,1.30
2022-09-10T20:46:46.565Z,1.25
2022-09-10T20:49:16.345Z,1.08
2022-09-10T20:51:45.396Z,1.02
2022-09-10T20:54:18.635Z,1.25
2022-09-10T20:56:47.052Z,1.23
2022-09-10T20:59:17.811Z,1.13
2022-09-10T21:01:47.022Z,1.10
2022-09-10T21:04:15.521Z,1.38
2022-09-10T21:06:43.677Z,1.48
2022-09-10T21:09:12.647Z,1.10
2022-09-10T21:11:41.172Z,1.10
2022-09-10T21:14:09.484Z,0.90
2022-09-10T21:16:39.995Z,1.23
2022-09-10T21:19:11.437Z,1.42
2022-09-10T21:21:40.607Z,0.95
2022-09-10T21:24:17.392Z,1.10
2022-09-10T21:26:45.925Z,1.30
2022-09-10T21:29:17.050Z,1.15
2022-09-10T21:31:45.901Z,1.23
2022-09-10T21:34:17.453Z,1.23
2022-09-10T21:36:45.632Z,1.10
2022-09-10T21:39:15.946Z,1.00
2022-09-10T21:41:48.921Z,1.13
2022-09-10T21:44:22.319Z,1.17
2022-09-10T21:46:50.900Z,1.15
2022-09-10T21:49:20.396Z,1.13
2022-09-10T21:51:48.850Z,1.02
2022-09-10T21:54:20.761Z,1.13
2022-09-10T21:56:50.831Z,1.13
2022-09-10T21:59:20.445Z,0.88
2022-09-10T22:01:51.379Z,1.20
2022-09-10T22:04:22.874Z,1.00
2022-09-10T22:06:54.347Z,1.10
2022-09-10T22:09:22.615Z,1.00
2022-09-10T22:11:54.120Z,1.30
2022-09-10T22:14:24.286Z,1.05
2022-09-10T22:16:53.343Z,1.35
2022-09-10T22:19:24.719Z,0.95
2022-09-10T22:21:54.370Z,0.90
2022-09-10T22:24:22.725Z,1.15
2022-09-10T22:26:51.148Z,1.02
2022-09-10T22:29:20.364Z,1.00
2022-09-10T22:31:50.139Z,1.20
2022-09-10T22:34:19.674Z,1.05
2022-09-10T22:36:49.535Z,1.10
2022-09-10T22:39:22.035Z,1.05
2022-09-10T22:41:51.360Z,0.93
2022-09-10T22:44:20.127Z,0.95
2022-09-10T22:46:48.541Z,0.90
2022-09-10T22:49:17.059Z,0.75
2022-09-10T22:51:45.846Z,1.00
2022-09-10T22:54:13.993Z,1.00
2022-09-10T22:56:42.123Z,0.82
2022-09-10T22:59:13.974Z,1.15
2022-09-10T23:01:44.359Z,1.00
2022-09-10T23:04:12.958Z,1.38
2022-09-10T23:06:42.639Z,0.90
2022-09-10T23:09:17.888Z,0.90
2022-09-10T23:11:46.876Z,0.93
2022-09-10T23:14:19.164Z,0.80
2022-09-10T23:16:49.557Z,1.20
2022-09-10T23:19:20.963Z,1.17
2022-09-10T23:21:55.073Z,1.00
2022-09-10T23:24:26.527Z,0.80
2022-09-10T23:26:55.326Z,0.85
2022-09-10T23:29:23.921Z,1.10
2022-09-10T23:31:55.255Z,0.70
2022-09-10T23:34:23.603Z,0.80
2022-09-10T23:36:53.231Z,0.80
2022-09-10T23:39:23.488Z,0.93
2022-09-10T23:41:54.541Z,1.33
2022-09-10T23:44:23.043Z,0.57
2022-09-10T23:46:51.222Z,0.50
2022-09-10T23:49:19.428Z,0.82
2022-09-10T23:51:48.079Z,0.70
2022-09-10T23:54:17.771Z,0.93
2022-09-10T23:56:46.094Z,1.20
2022-09-10T23:59:15.426Z,0.60
